createdAt,value
2019-05-30T00:00:26.126Z,0
2019-05-30T00:01:06.539Z,0
2019-05-30T00:01:46.994Z,0
2019-05-30T00:08:31.137Z,0
2019-05-30T00:09:11.560Z,0
2019-05-30T00:09:52.056Z,0
2019-05-30T00:10:32.446Z,0
2019-05-30T00:11:12.731Z,0
2019-05-30T00:11:54.552Z,0
2019-05-30T00:12:33.535Z,0
2019-05-30T00:13:13.933Z,0
2019-05-30T00:13:54.671Z,0
2019-05-30T00:14:34.760Z,0
2019-05-30T00:15:15.160Z,0
2019-05-30T00:15:56.568Z,0
2019-05-30T00:16:35.982Z,0
2019-05-30T00:24:12.837Z,0
2019-05-30T00:24:53.254Z,0
2019-05-30T00:25:33.644Z,0
2019-05-30T00:30:24.191Z,0
2019-05-30T00:30:58.227Z,0
2019-05-30T00:31:37.438Z,0
2019-05-30T00:32:17.842Z,0
2019-05-30T00:32:58.909Z,0
2019-05-30T00:33:38.703Z,0
2019-05-30T00:37:57.774Z,0
2019-05-30T00:38:38.199Z,0
2019-05-30T00:39:18.586Z,0
2019-05-30T00:46:02.724Z,0
2019-05-30T00:46:43.153Z,0
2019-05-30T00:47:23.579Z,0
2019-05-30T00:48:04.361Z,0
2019-05-30T00:48:44.414Z,0
2019-05-30T00:49:24.838Z,0
2019-05-30T00:50:06.526Z,0
2019-05-30T00:50:45.668Z,0
2019-05-30T00:51:26.110Z,0
2019-05-30T00:52:06.834Z,0
2019-05-30T00:52:46.920Z,0
2019-05-30T00:53:27.341Z,0
2019-05-30T01:01:32.442Z,0
2019-05-30T01:02:12.868Z,0
2019-05-30T01:02:53.311Z,0
2019-05-30T01:03:33.735Z,0
2019-05-30T01:04:14.159Z,0
2019-05-30T01:04:54.577Z,0
2019-05-30T01:05:35.007Z,0
2019-05-30T01:06:15.428Z,0
2019-05-30T01:06:56.836Z,0
2019-05-30T01:08:16.707Z,0
2019-05-30T01:08:57.138Z,0
2019-05-30T01:17:42.558Z,0
2019-05-30T01:18:22.901Z,0
2019-05-30T01:19:03.314Z,0
2019-05-30T01:19:43.710Z,0
2019-05-30T01:20:24.154Z,0
2019-05-30T01:21:05.361Z,0
2019-05-30T01:21:45.031Z,0
2019-05-30T01:22:25.423Z,0
2019-05-30T01:23:05.849Z,0
2019-05-30T01:23:46.259Z,0
2019-05-30T01:24:26.678Z,0
2019-05-30T01:33:52.457Z,0
2019-05-30T01:34:32.866Z,0
2019-05-30T01:35:13.270Z,0
2019-05-30T01:35:53.676Z,0
2019-05-30T01:36:34.075Z,0
2019-05-30T01:37:14.472Z,0
2019-05-30T01:37:54.867Z,0
2019-05-30T01:38:35.295Z,0
2019-05-30T01:39:15.702Z,0
2019-05-30T01:39:56.102Z,0
2019-05-30T01:40:36.548Z,0
2019-05-30T01:41:17.782Z,0
2019-05-30T01:41:57.707Z,0
2019-05-30T01:50:42.819Z,0
2019-05-30T01:51:23.227Z,0
2019-05-30T01:52:04.508Z,0
2019-05-30T01:52:44.084Z,0
2019-05-30T01:53:24.485Z,0
2019-05-30T01:54:04.904Z,0
2019-05-30T01:54:45.325Z,0
2019-05-30T01:55:25.745Z,0
2019-05-30T01:56:06.787Z,0
2019-05-30T01:56:46.606Z,0
2019-05-30T01:57:27.038Z,0
2019-05-30T01:58:07.471Z,0
2019-05-30T02:06:12.542Z,0
2019-05-30T02:06:52.977Z,0
2019-05-30T02:07:33.355Z,0
2019-05-30T02:08:13.754Z,0
2019-05-30T02:08:54.098Z,0
2019-05-30T02:09:34.492Z,0
2019-05-30T02:10:14.877Z,0
2019-05-30T02:10:55.293Z,0
2019-05-30T02:11:35.688Z,0
2019-05-30T02:12:16.103Z,0
2019-05-30T02:12:56.513Z,0
2019-05-30T02:13:36.941Z,0
2019-05-30T02:14:17.346Z,0
2019-05-30T02:22:08.544Z,0
2019-05-30T02:22:48.954Z,0
2019-05-30T02:23:29.380Z,0
2019-05-30T02:30:14.978Z,0
2019-05-30T02:30:53.906Z,0
2019-05-30T02:31:38.793Z,0
2019-05-30T02:32:55.138Z,0
2019-05-30T02:33:35.430Z,0
2019-05-30T02:34:15.829Z,0
2019-05-30T02:34:56.220Z,0
2019-05-30T02:35:36.641Z,0
2019-05-30T02:36:17.038Z,0
2019-05-30T02:36:57.423Z,0
2019-05-30T02:37:37.845Z,0
2019-05-30T02:38:18.235Z,0
2019-05-30T02:48:35.836Z,0
2019-05-30T02:49:16.262Z,0
2019-05-30T02:49:56.702Z,0
2019-05-30T02:56:01.390Z,0
2019-05-30T02:56:40.942Z,0
2019-05-30T02:57:21.370Z,0
2019-05-30T02:58:03.535Z,0
2019-05-30T02:58:42.227Z,0
2019-05-30T02:59:22.632Z,0
2019-05-30T03:00:05.177Z,0
2019-05-30T03:00:43.446Z,0
2019-05-30T03:01:23.854Z,0
2019-05-30T03:02:08.769Z,0
2019-05-30T03:02:44.689Z,0
2019-05-30T03:03:25.115Z,0
2019-05-30T03:04:06.076Z,0
2019-05-30T03:12:11.338Z,0
2019-05-30T03:12:51.038Z,0
2019-05-30T03:13:31.472Z,0
2019-05-30T03:14:18.488Z,0
2019-05-30T03:14:52.328Z,0
2019-05-30T03:15:32.745Z,0
2019-05-30T03:16:13.602Z,0
2019-05-30T03:16:53.596Z,0
2019-05-30T03:17:34.030Z,0
2019-05-30T03:18:15.066Z,0
2019-05-30T03:18:54.874Z,0
2019-05-30T03:21:32.832Z,0
2019-05-30T03:22:13.938Z,0
2019-05-30T03:22:53.655Z,0
2019-05-30T03:29:24.011Z,0
2019-05-30T03:30:09.368Z,0
2019-05-30T03:30:44.908Z,0
2019-05-30T03:34:58.717Z,0
2019-05-30T03:35:41.579Z,0
2019-05-30T03:36:28.130Z,0
2019-05-30T03:37:40.425Z,0
2019-05-30T03:38:20.847Z,0
2019-05-30T03:39:03.161Z,0
2019-05-30T03:39:41.709Z,0
2019-05-30T03:40:23.429Z,0
2019-05-30T03:41:04.570Z,0
2019-05-30T03:41:42.978Z,0
2019-05-30T03:42:23.414Z,0
2019-05-30T03:43:04.371Z,0
2019-05-30T03:43:44.262Z,0
2019-05-30T03:44:24.683Z,0
2019-05-30T03:45:06.288Z,0
2019-05-30T03:53:50.603Z,0
2019-05-30T03:54:30.989Z,0
2019-05-30T03:55:12.407Z,0
2019-05-30T03:55:51.791Z,0
2019-05-30T03:56:32.217Z,0
2019-05-30T03:57:13.889Z,0
2019-05-30T03:57:53.042Z,0
2019-05-30T03:58:33.464Z,0
2019-05-30T03:59:14.799Z,0
2019-05-30T03:59:54.293Z,0
2019-05-30T04:00:34.668Z,0
2019-05-30T04:01:15.105Z,0
2019-05-30T04:10:00.366Z,0
2019-05-30T04:10:40.782Z,0
2019-05-30T04:11:21.209Z,0
2019-05-30T04:12:01.629Z,0
2019-05-30T04:12:42.048Z,0
2019-05-30T04:13:22.490Z,0
2019-05-30T04:14:02.877Z,0
2019-05-30T04:14:43.310Z,0
2019-05-30T04:15:23.701Z,0
2019-05-30T04:16:04.119Z,0
2019-05-30T04:16:44.590Z,0
2019-05-30T04:17:25.052Z,0
2019-05-30T04:24:50.650Z,0
2019-05-30T04:25:31.052Z,0
2019-05-30T04:26:11.575Z,0
2019-05-30T04:26:51.871Z,0
2019-05-30T05:08:03.637Z,5
2019-05-30T05:08:43.995Z,5
2019-05-30T05:09:24.433Z,5
2019-05-30T05:16:22.790Z,5
2019-05-30T05:16:48.865Z,5
2019-05-30T05:17:29.242Z,5
2019-05-30T05:18:09.643Z,5
2019-05-30T05:18:50.064Z,5
2019-05-30T05:19:30.452Z,5
2019-05-30T05:20:10.831Z,5
2019-05-30T05:20:51.315Z,5
2019-05-30T05:21:31.644Z,5
2019-05-30T05:22:12.830Z,5
2019-05-30T05:22:52.439Z,5
2019-05-30T05:23:32.867Z,5
2019-05-30T05:24:13.423Z,5
2019-05-30T05:32:58.548Z,5
2019-05-30T05:33:38.960Z,5
2019-05-30T05:34:20.612Z,5
2019-05-30T05:34:59.748Z,5
2019-05-30T05:35:40.178Z,5
2019-05-30T05:36:20.932Z,5
2019-05-30T05:37:00.897Z,5
2019-05-30T05:37:41.327Z,5
2019-05-30T05:38:22.396Z,5
2019-05-30T05:39:02.135Z,5
2019-05-30T05:39:42.547Z,5
2019-05-30T05:40:24.004Z,5
2019-05-30T05:41:03.310Z,10
2019-05-30T05:47:48.291Z,10
2019-05-30T05:48:28.861Z,10
2019-05-30T05:49:09.158Z,10
2019-05-30T05:49:49.581Z,10
2019-05-30T05:50:29.997Z,10
2019-05-30T05:51:10.403Z,10
2019-05-30T05:51:50.811Z,10
2019-05-30T05:52:31.208Z,10
2019-05-30T05:53:11.572Z,10
2019-05-30T05:53:51.958Z,10
2019-05-30T05:54:32.346Z,10
2019-05-30T05:55:12.769Z,10
2019-05-30T05:55:53.194Z,10
2019-05-30T06:00:47.399Z,10
2019-05-30T06:01:27.804Z,10
2019-05-30T06:02:08.211Z,10
2019-05-30T06:04:12.929Z,10
2019-05-30T06:04:49.923Z,10
2019-05-30T06:05:30.361Z,10
2019-05-30T06:06:10.754Z,10
2019-05-30T06:06:51.176Z,10
2019-05-30T06:07:31.567Z,10
2019-05-30T06:08:11.979Z,10
2019-05-30T06:08:52.408Z,10
2019-05-30T06:09:32.815Z,10
2019-05-30T06:10:13.245Z,10
2019-05-30T06:10:53.661Z,10
2019-05-30T06:11:34.060Z,10
2019-05-30T06:12:14.459Z,10
2019-05-30T06:16:19.858Z,15
2019-05-30T06:16:59.942Z,15
2019-05-30T06:17:40.324Z,15
2019-05-30T06:18:21.877Z,15
2019-05-30T06:19:01.153Z,15
2019-05-30T06:19:46.160Z,15
2019-05-30T06:20:21.946Z,15
2019-05-30T06:21:02.374Z,15
2019-05-30T06:21:53.354Z,15
2019-05-30T06:22:23.569Z,15
2019-05-30T06:23:03.615Z,15
2019-05-30T06:23:45.679Z,15
2019-05-30T06:24:25.618Z,15
2019-05-30T06:31:50.672Z,15
2019-05-30T06:32:31.067Z,15
2019-05-30T06:33:11.486Z,15
2019-05-30T06:33:51.900Z,15
2019-05-30T06:34:38.740Z,15
2019-05-30T06:41:56.708Z,15
2019-05-30T06:42:37.143Z,15
2019-05-30T06:43:17.552Z,15
2019-05-30T06:50:01.723Z,20
2019-05-30T06:50:42.140Z,20
2019-05-30T06:51:22.784Z,20
2019-05-30T06:52:02.951Z,20
2019-05-30T06:52:43.387Z,20
2019-05-30T06:53:25.041Z,20
2019-05-30T06:54:04.209Z,20
2019-05-30T06:54:44.633Z,20
2019-05-30T06:55:25.211Z,20
2019-05-30T06:56:05.495Z,20
2019-05-30T06:56:45.912Z,20
2019-05-30T06:57:27.263Z,20
2019-05-30T07:06:12.184Z,25
2019-05-30T07:06:52.259Z,25
2019-05-30T07:07:33.359Z,25
2019-05-30T07:08:12.959Z,30
2019-05-30T07:08:53.347Z,30
2019-05-30T07:09:33.734Z,30
2019-05-30T07:10:14.136Z,35
2019-05-30T07:11:34.892Z,40
2019-05-30T07:12:15.254Z,40
2019-05-30T07:12:55.680Z,45
2019-05-30T07:13:36.080Z,45
2019-05-30T07:22:21.464Z,25
2019-05-30T07:23:01.853Z,25
2019-05-30T07:23:42.295Z,25
2019-05-30T07:24:23.691Z,25
2019-05-30T07:25:03.147Z,25
2019-05-30T07:25:43.561Z,25
2019-05-30T07:26:23.999Z,25
2019-05-30T07:27:04.390Z,25
2019-05-30T07:27:44.788Z,25
2019-05-30T07:28:25.795Z,25
2019-05-30T07:29:05.598Z,25
2019-05-30T07:29:45.999Z,25
2019-05-30T07:30:26.424Z,25
2019-05-30T07:39:11.705Z,20
2019-05-30T07:39:52.146Z,20
2019-05-30T07:40:32.785Z,20
2019-05-30T07:41:12.992Z,20
2019-05-30T07:42:05.525Z,20
2019-05-30T07:42:34.786Z,20
2019-05-30T07:43:14.301Z,20
2019-05-30T07:43:54.717Z,20
2019-05-30T07:44:35.148Z,20
2019-05-30T07:45:15.718Z,20
2019-05-30T07:46:37.245Z,20
2019-05-30T07:55:21.675Z,20
2019-05-30T07:56:02.082Z,20
2019-05-30T07:56:42.502Z,20
2019-05-30T07:57:22.901Z,20
2019-05-30T07:58:03.289Z,20
2019-05-30T07:58:43.696Z,20
2019-05-30T07:59:24.120Z,20
2019-05-30T08:00:04.535Z,20
2019-05-30T08:00:44.947Z,20
2019-05-30T08:01:26.308Z,20
2019-05-30T08:02:05.784Z,20
2019-05-30T08:02:46.211Z,20
2019-05-30T08:11:31.676Z,25
2019-05-30T08:12:12.102Z,25
2019-05-30T08:12:52.528Z,25
2019-05-30T08:13:33.135Z,30
2019-05-30T08:14:13.320Z,30
2019-05-30T08:14:53.687Z,30
2019-05-30T08:15:35.251Z,30
2019-05-30T08:16:14.488Z,30
2019-05-30T08:16:54.891Z,30
2019-05-30T08:17:35.679Z,30
2019-05-30T08:18:15.740Z,30
2019-05-30T08:18:56.203Z,30
2019-05-30T08:30:47.946Z,35
2019-05-30T08:31:28.625Z,35
2019-05-30T08:32:08.805Z,35
2019-05-30T08:38:12.657Z,30
2019-05-30T08:38:53.087Z,30
2019-05-30T08:39:33.502Z,35
2019-05-30T08:40:13.939Z,35
2019-05-30T08:40:54.650Z,35
2019-05-30T08:41:35.275Z,35
2019-05-30T08:42:15.450Z,35
2019-05-30T08:42:56.050Z,35
2019-05-30T08:43:37.490Z,30
2019-05-30T08:44:16.746Z,30
2019-05-30T08:44:57.130Z,30
2019-05-30T08:45:37.967Z,30
2019-05-30T08:54:22.866Z,25
2019-05-30T08:55:03.279Z,25
2019-05-30T08:55:43.699Z,25
2019-05-30T08:56:24.112Z,25
2019-05-30T08:57:04.546Z,25
2019-05-30T08:57:44.947Z,25
2019-05-30T08:58:25.360Z,25
2019-05-30T08:59:05.780Z,25
2019-05-30T08:59:46.151Z,25
2019-05-30T09:00:26.541Z,25
2019-05-30T09:01:07.003Z,25
2019-05-30T09:01:52.600Z,25
2019-05-30T09:07:22.004Z,30
2019-05-30T09:08:02.437Z,30
2019-05-30T09:08:44.125Z,30
2019-05-30T09:14:54.794Z,35
2019-05-30T09:15:37.430Z,35
2019-05-30T09:16:15.734Z,35
2019-05-30T09:22:59.705Z,35
2019-05-30T09:24:20.639Z,45
2019-05-30T09:25:00.956Z,50
2019-05-30T09:25:42.230Z,50
2019-05-30T09:26:21.883Z,55
2019-05-30T09:27:02.268Z,55
2019-05-30T09:27:44.365Z,55
2019-05-30T09:28:23.083Z,60
2019-05-30T09:29:03.875Z,65
2019-05-30T09:29:44.612Z,65
2019-05-30T09:30:24.357Z,65
2019-05-30T09:39:09.670Z,45
2019-05-30T09:39:50.105Z,45
2019-05-30T09:40:30.538Z,40
2019-05-30T09:41:10.929Z,40
2019-05-30T09:41:51.335Z,40
2019-05-30T09:42:31.695Z,40
2019-05-30T09:43:12.102Z,40
2019-05-30T09:43:52.484Z,40
2019-05-30T09:44:32.872Z,35
2019-05-30T09:45:13.281Z,35
2019-05-30T09:45:53.671Z,35
2019-05-30T09:46:34.060Z,35
2019-05-30T09:47:14.448Z,30
2019-05-30T09:53:11.325Z,25
2019-05-30T09:53:52.826Z,25
2019-05-30T09:54:32.218Z,25
2019-05-30T10:00:28.648Z,30
2019-05-30T10:06:28.352Z,30
2019-05-30T10:06:53.591Z,25
2019-05-30T10:07:34.019Z,30
2019-05-30T10:13:37.972Z,25
2019-05-30T10:14:18.362Z,25
2019-05-30T10:14:58.767Z,25
2019-05-30T10:15:39.496Z,30
2019-05-30T10:16:19.898Z,30
2019-05-30T10:17:00.295Z,30
2019-05-30T10:17:40.637Z,30
2019-05-30T10:18:21.035Z,30
2019-05-30T10:19:01.471Z,30
2019-05-30T10:19:41.898Z,30
2019-05-30T10:20:22.311Z,25
2019-05-30T10:21:02.737Z,25
2019-05-30T11:08:35.274Z,55
2019-05-30T11:09:15.616Z,55
2019-05-30T11:09:57.342Z,50
2019-05-30T11:10:36.414Z,50
2019-05-30T11:11:16.845Z,50
2019-05-30T11:11:57.181Z,45
2019-05-30T11:12:37.615Z,45
2019-05-30T11:13:58.481Z,45
2019-05-30T11:14:38.790Z,45
2019-05-30T11:15:19.158Z,45
2019-05-30T11:15:59.566Z,40
2019-05-30T11:16:39.998Z,40
2019-05-30T11:17:20.336Z,40
2019-05-30T11:24:45.927Z,40
2019-05-30T11:25:26.308Z,35
2019-05-30T11:26:06.784Z,35
2019-05-30T11:26:48.706Z,30
2019-05-30T11:27:27.644Z,30
2019-05-30T11:28:08.080Z,30
2019-05-30T11:28:48.625Z,30
2019-05-30T11:29:28.859Z,30
2019-05-30T11:30:09.286Z,30
2019-05-30T11:30:50.593Z,30
2019-05-30T11:37:35.329Z,25
2019-05-30T11:38:15.779Z,25
2019-05-30T11:38:57.322Z,20
2019-05-30T11:39:36.583Z,20
2019-05-30T11:40:17.082Z,20
2019-05-30T11:40:57.603Z,15
2019-05-30T11:41:37.778Z,15
2019-05-30T11:42:18.090Z,15
2019-05-30T11:42:59.913Z,15
2019-05-30T11:43:38.900Z,20
2019-05-30T11:44:19.327Z,20
2019-05-30T11:44:59.975Z,20
2019-05-30T11:45:40.062Z,20
2019-05-30T11:54:25.409Z,15
2019-05-30T11:55:05.798Z,15
2019-05-30T11:55:46.182Z,20
2019-05-30T11:56:26.539Z,20
2019-05-30T11:57:06.959Z,20
2019-05-30T11:57:47.308Z,20
2019-05-30T11:58:27.715Z,20
2019-05-30T11:59:08.148Z,20
2019-05-30T11:59:48.539Z,20
2019-05-30T12:00:28.941Z,20
2019-05-30T12:01:09.373Z,20
2019-05-30T12:01:50.222Z,20
2019-05-30T12:02:30.168Z,20
2019-05-30T12:09:15.473Z,25
2019-05-30T12:09:56.862Z,25
2019-05-30T12:10:36.367Z,25
2019-05-30T12:11:16.781Z,25
2019-05-30T12:11:57.392Z,25
2019-05-30T12:12:37.550Z,25
2019-05-30T12:13:17.910Z,30
2019-05-30T12:13:59.482Z,30
2019-05-30T12:14:38.988Z,35
2019-05-30T12:15:19.261Z,40
2019-05-30T12:15:59.801Z,40
2019-05-30T12:16:40.142Z,40
2019-05-30T12:25:25.591Z,45
2019-05-30T12:26:06.265Z,40
2019-05-30T12:26:46.475Z,40
2019-05-30T12:27:26.905Z,35
2019-05-30T12:28:07.324Z,30
2019-05-30T12:28:47.767Z,30
2019-05-30T12:30:08.730Z,25
2019-05-30T12:30:56.378Z,25
2019-05-30T12:31:29.567Z,25
2019-05-30T12:32:10.146Z,25
2019-05-30T12:41:35.765Z,20
2019-05-30T12:42:16.139Z,25
2019-05-30T12:44:33.867Z,25
2019-05-30T12:45:14.286Z,25
2019-05-30T12:45:54.933Z,25
2019-05-30T12:51:19.430Z,30
2019-05-30T12:52:00.565Z,30
2019-05-30T12:52:41.075Z,30
2019-05-30T12:53:21.525Z,30
2019-05-30T12:54:02.693Z,30
2019-05-30T12:54:42.664Z,30
2019-05-30T12:55:23.140Z,30
2019-05-30T12:56:03.541Z,25
2019-05-30T13:02:48.745Z,25
2019-05-30T13:03:29.087Z,20
2019-05-30T13:04:09.511Z,20
2019-05-30T13:04:49.893Z,20
2019-05-30T13:05:30.478Z,20
2019-05-30T13:06:10.746Z,20
2019-05-30T13:06:53.937Z,20
2019-05-30T13:07:31.557Z,20
2019-05-30T13:08:21.068Z,20
2019-05-30T13:08:52.297Z,20
2019-05-30T13:09:32.730Z,20
2019-05-30T13:10:13.215Z,15
2019-05-30T13:18:18.565Z,25
2019-05-30T13:18:59.974Z,25
2019-05-30T13:19:39.330Z,25
2019-05-30T13:20:19.723Z,25
2019-05-30T13:21:00.133Z,25
2019-05-30T13:21:40.528Z,25
2019-05-30T13:22:20.934Z,25
2019-05-30T13:23:02.570Z,25
2019-05-30T13:23:41.768Z,25
2019-05-30T13:24:22.193Z,25
2019-05-30T13:25:03.810Z,25
2019-05-30T13:25:42.977Z,25
2019-05-30T13:29:18.703Z,20
2019-05-30T13:29:59.961Z,20
2019-05-30T13:30:39.765Z,20
2019-05-30T13:34:44.060Z,15
2019-05-30T13:35:24.518Z,15
2019-05-30T13:36:05.146Z,15
2019-05-30T13:36:45.303Z,15
2019-05-30T13:37:25.754Z,15
2019-05-30T13:38:07.264Z,15
2019-05-30T13:38:46.496Z,20
2019-05-30T13:39:26.926Z,20
2019-05-30T13:40:23.333Z,20
2019-05-30T13:40:47.732Z,20
2019-05-30T13:41:28.137Z,20
2019-05-30T13:50:53.669Z,25
2019-05-30T13:51:34.004Z,25
2019-05-30T13:52:14.491Z,25
2019-05-30T13:52:54.798Z,25
2019-05-30T13:53:35.180Z,25
2019-05-30T13:54:15.560Z,25
2019-05-30T13:54:55.968Z,30
2019-05-30T13:55:36.344Z,30
2019-05-30T13:56:16.834Z,30
2019-05-30T13:56:57.338Z,30
2019-05-30T13:57:37.739Z,30
2019-05-30T13:58:18.076Z,30
2019-05-30T14:07:04.164Z,25
2019-05-30T14:07:43.961Z,25
2019-05-30T14:08:24.411Z,25
2019-05-30T14:09:04.897Z,25
2019-05-30T14:10:35.500Z,25
2019-05-30T14:11:20.069Z,25
2019-05-30T14:13:21.503Z,20
2019-05-30T14:14:02.848Z,20
2019-05-30T14:14:43.499Z,20
2019-05-30T14:15:26.555Z,20
2019-05-30T14:18:11.214Z,25
2019-05-30T14:18:53.998Z,25
2019-05-30T14:21:40.336Z,25
2019-05-30T14:22:20.595Z,30
2019-05-30T14:23:03.271Z,30
2019-05-30T14:29:51.530Z,30
2019-05-30T14:30:32.549Z,30
2019-05-30T14:31:13.957Z,30
2019-05-30T14:34:00.334Z,35
2019-05-30T14:34:41.890Z,35
2019-05-30T14:35:23.299Z,40
2019-05-30T14:36:07.162Z,40
2019-05-30T14:42:50.299Z,45
2019-05-30T14:43:30.667Z,45
2019-05-30T14:44:11.129Z,45
2019-05-30T14:44:51.511Z,45
2019-05-30T14:45:31.944Z,45
2019-05-30T14:46:52.902Z,45
2019-05-30T14:47:33.286Z,40
2019-05-30T14:48:13.630Z,40
2019-05-30T14:48:54.280Z,40
2019-05-30T14:49:34.597Z,40
2019-05-30T14:50:15.067Z,45
2019-05-30T14:56:20.446Z,40
2019-05-30T14:57:00.745Z,40
2019-05-30T14:57:41.155Z,40
2019-05-30T14:58:21.509Z,40
2019-05-30T14:59:01.975Z,40
2019-05-30T14:59:42.401Z,45
2019-05-30T15:00:22.778Z,45
2019-05-30T15:01:03.167Z,45
2019-05-30T15:01:43.576Z,45
2019-05-30T15:02:23.971Z,45
2019-05-30T15:03:07.528Z,45
2019-05-30T15:11:50.520Z,45
2019-05-30T15:12:30.961Z,45
2019-05-30T15:13:11.669Z,45
2019-05-30T15:13:51.768Z,45
2019-05-30T15:14:32.372Z,45
2019-05-30T15:15:15.041Z,50
2019-05-30T15:15:53.105Z,50
2019-05-30T15:16:33.635Z,50
2019-05-30T15:17:14.252Z,45
2019-05-30T15:17:54.423Z,45
2019-05-30T15:18:34.804Z,45
2019-05-30T15:26:00.248Z,50
2019-05-30T15:26:40.662Z,50
2019-05-30T15:27:21.164Z,55
2019-05-30T15:28:01.577Z,60
2019-05-30T15:28:42.001Z,60
2019-05-30T15:29:22.378Z,55
2019-05-30T15:30:02.758Z,55
2019-05-30T15:30:43.296Z,55
2019-05-30T15:31:23.650Z,55
2019-05-30T15:32:04.059Z,50
2019-05-30T15:32:44.484Z,50
2019-05-30T15:36:50.285Z,40
2019-05-30T15:37:30.648Z,40
2019-05-30T15:38:11.044Z,40
2019-05-30T15:38:51.485Z,40
2019-05-30T15:39:33.081Z,40
2019-05-30T15:40:13.015Z,40
2019-05-30T15:40:52.724Z,40
2019-05-30T15:41:33.135Z,40
2019-05-30T15:42:13.580Z,35
2019-05-30T15:42:54.848Z,35
2019-05-30T15:49:00.534Z,35
2019-05-30T15:49:40.992Z,35
2019-05-30T15:50:21.825Z,35
2019-05-30T15:51:02.694Z,35
2019-05-30T15:51:43.121Z,35
2019-05-30T15:52:23.585Z,35
2019-05-30T15:53:03.967Z,35
2019-05-30T15:53:44.350Z,35
2019-05-30T15:59:11.554Z,40
2019-05-30T15:59:50.597Z,40
2019-05-30T16:00:31.335Z,40
2019-05-30T16:01:11.835Z,40
2019-05-30T16:01:52.001Z,40
2019-05-30T16:02:32.601Z,40
2019-05-30T16:03:14.814Z,40
2019-05-30T16:08:52.678Z,40
2019-05-30T16:09:46.213Z,40
2019-05-30T16:10:17.100Z,35
2019-05-30T16:10:57.449Z,35
2019-05-30T16:11:37.825Z,35
2019-05-30T16:12:19.376Z,35
2019-05-30T16:12:58.875Z,35
2019-05-30T16:13:39.349Z,35
2019-05-30T16:14:19.671Z,35
2019-05-30T16:15:00.062Z,35
2019-05-30T16:15:43.643Z,35
2019-05-30T16:18:19.802Z,35
2019-05-30T16:19:12.816Z,35
2019-05-30T16:19:39.413Z,35
2019-05-30T16:26:23.681Z,30
2019-05-30T16:27:04.268Z,30
2019-05-30T16:27:44.669Z,30
2019-05-30T16:28:26.046Z,30
2019-05-30T16:29:05.509Z,30
2019-05-30T17:09:11.594Z,25
2019-05-30T17:09:53.224Z,25
2019-05-30T17:10:33.527Z,25
2019-05-30T17:11:15.218Z,25
2019-05-30T17:15:16.329Z,25
2019-05-30T17:15:56.689Z,25
2019-05-30T17:16:37.090Z,25
2019-05-30T17:17:18.176Z,25
2019-05-30T17:17:57.890Z,25
2019-05-30T17:18:38.407Z,25
2019-05-30T17:19:20.407Z,25
2019-05-30T17:19:59.742Z,25
2019-05-30T17:24:46.563Z,25
2019-05-30T17:25:27.878Z,25
2019-05-30T17:26:08.443Z,25
2019-05-30T17:26:51.756Z,25
2019-05-30T17:27:29.246Z,25
2019-05-30T17:28:09.781Z,25
2019-05-30T17:28:50.272Z,25
2019-05-30T17:31:21.837Z,25
2019-05-30T17:32:01.202Z,25
2019-05-30T17:32:41.572Z,25
2019-05-30T17:39:26.673Z,25
2019-05-30T17:40:06.037Z,25
2019-05-30T17:40:49.586Z,25
2019-05-30T17:41:26.869Z,25
2019-05-30T17:42:07.219Z,25
2019-05-30T17:42:47.640Z,25
2019-05-30T17:43:29.236Z,20
2019-05-30T17:44:08.501Z,25
2019-05-30T17:44:48.860Z,20
2019-05-30T17:45:29.510Z,20
2019-05-30T17:46:09.777Z,20
2019-05-30T17:46:50.125Z,20
2019-05-30T17:54:15.621Z,20
2019-05-30T17:54:56.043Z,20
2019-05-30T17:55:36.365Z,20
2019-05-30T17:56:16.767Z,20
2019-05-30T17:56:57.140Z,20
2019-05-30T17:57:37.618Z,20
2019-05-30T17:58:18.052Z,20
2019-05-30T17:58:58.662Z,20
2019-05-30T17:59:39.061Z,20
2019-05-30T18:00:20.374Z,20
2019-05-30T18:01:00.009Z,20
2019-05-30T18:09:45.427Z,15
2019-05-30T18:10:26.848Z,15
2019-05-30T18:11:06.242Z,20
2019-05-30T18:11:46.628Z,20
2019-05-30T18:12:27.131Z,20
2019-05-30T18:13:07.604Z,20
2019-05-30T18:13:47.911Z,15
2019-05-30T18:14:29.244Z,15
2019-05-30T18:15:49.172Z,15
2019-05-30T18:16:29.563Z,15
2019-05-30T18:17:10.072Z,15
2019-05-30T18:23:56.248Z,10
2019-05-30T18:24:35.714Z,10
2019-05-30T18:25:16.092Z,10
2019-05-30T18:25:56.499Z,15
2019-05-30T18:26:36.930Z,10
2019-05-30T18:27:17.352Z,10
2019-05-30T18:27:58.057Z,10
2019-05-30T18:28:38.396Z,10
2019-05-30T18:29:19.142Z,10
2019-05-30T18:29:59.289Z,10
2019-05-30T18:30:40.051Z,10
2019-05-30T18:31:21.773Z,10
2019-05-30T18:38:06.205Z,10
2019-05-30T18:38:46.634Z,10
2019-05-30T18:39:27.037Z,10
2019-05-30T18:40:07.479Z,10
2019-05-30T18:40:48.098Z,10
2019-05-30T18:41:28.827Z,10
2019-05-30T18:42:09.160Z,10
2019-05-30T18:42:50.021Z,10
2019-05-30T18:50:15.798Z,10
2019-05-30T18:50:56.602Z,5
2019-05-30T18:51:37.242Z,5
2019-05-30T18:54:11.184Z,5
2019-05-30T18:54:51.564Z,5
2019-05-30T18:55:32.632Z,5
2019-05-30T19:01:37.741Z,5
2019-05-30T19:02:18.491Z,5
2019-05-30T19:02:57.744Z,5
2019-05-30T19:04:22.681Z,5
2019-05-30T19:11:05.845Z,0
2019-05-30T19:11:46.261Z,0
2019-05-30T19:12:26.693Z,0
2019-05-30T19:13:07.076Z,0
2019-05-30T19:13:47.511Z,0
2019-05-30T19:14:30.685Z,0
2019-05-30T19:15:08.303Z,0
2019-05-30T19:15:48.786Z,0
2019-05-30T19:17:09.604Z,0
2019-05-30T19:17:49.966Z,0
2019-05-30T19:18:31.499Z,0
2019-05-30T19:26:36.700Z,0
2019-05-30T19:27:16.306Z,0
2019-05-30T19:27:56.725Z,0
2019-05-30T19:28:37.123Z,0
2019-05-30T19:29:17.568Z,0
2019-05-30T19:29:58.366Z,0
2019-05-30T19:30:41.067Z,0
2019-05-30T19:31:19.421Z,0
2019-05-30T19:32:00.115Z,0
2019-05-30T19:32:40.826Z,0
2019-05-30T19:38:45.977Z,0
2019-05-30T19:39:27.259Z,0
2019-05-30T19:40:06.926Z,0
2019-05-30T19:40:47.330Z,0
2019-05-30T19:43:15.193Z,0
2019-05-30T19:43:55.634Z,0
2019-05-30T19:44:39.382Z,0
2019-05-30T19:49:10.176Z,0
2019-05-30T19:49:50.563Z,0
2019-05-30T19:50:31.000Z,0
2019-05-30T19:58:15.308Z,0
2019-05-30T19:58:55.655Z,0
2019-05-30T19:59:36.286Z,0
2019-05-30T20:02:38.177Z,0
2019-05-30T20:03:17.319Z,0
2019-05-30T20:03:57.835Z,0
2019-05-30T20:04:38.340Z,0
2019-05-30T20:05:19.416Z,0
2019-05-30T20:05:59.743Z,0
2019-05-30T20:06:40.837Z,0
2019-05-30T20:08:54.969Z,0
2019-05-30T20:09:27.087Z,0
2019-05-30T20:10:07.569Z,0
2019-05-30T20:10:48.229Z,0
2019-05-30T20:11:28.771Z,0
2019-05-30T20:14:01.589Z,0
2019-05-30T20:14:41.972Z,0
2019-05-30T20:15:22.302Z,0
2019-05-30T20:22:06.434Z,0
2019-05-30T20:22:46.992Z,0
2019-05-30T20:23:27.427Z,0
2019-05-30T20:24:07.809Z,0
2019-05-30T20:24:48.353Z,0
2019-05-30T20:25:28.854Z,0
2019-05-30T20:26:09.420Z,0
2019-05-30T20:26:49.747Z,0
2019-05-30T20:27:30.159Z,0
2019-05-30T20:28:10.569Z,0
2019-05-30T20:28:50.989Z,0
2019-05-30T20:36:56.613Z,0
2019-05-30T20:37:37.033Z,0
2019-05-30T20:38:17.494Z,0
2019-05-30T20:38:57.887Z,0
2019-05-30T20:39:38.669Z,0
2019-05-30T20:40:18.712Z,0
2019-05-30T20:40:59.034Z,0
2019-05-30T20:41:39.442Z,0
2019-05-30T20:42:19.991Z,0
2019-05-30T20:43:00.188Z,0
2019-05-30T20:43:40.988Z,0
2019-05-30T20:44:21.066Z,0
2019-05-30T20:53:06.480Z,0
2019-05-30T20:53:47.602Z,0
2019-05-30T20:54:28.123Z,0
2019-05-30T20:55:08.529Z,0
2019-05-30T20:55:48.900Z,0
2019-05-30T20:56:29.523Z,0
2019-05-30T20:57:09.734Z,0
2019-05-30T20:57:50.099Z,0
2019-05-30T20:58:30.485Z,0
2019-05-30T20:59:10.903Z,0
2019-05-30T21:03:45.875Z,0
2019-05-30T21:04:25.345Z,0
2019-05-30T21:05:05.850Z,0
2019-05-30T21:11:49.874Z,0
2019-05-30T21:12:37.495Z,0
2019-05-30T21:13:11.727Z,0
2019-05-30T21:13:52.141Z,0
2019-05-30T21:14:32.572Z,0
2019-05-30T21:15:13.009Z,0
2019-05-30T21:15:53.419Z,0
2019-05-30T21:16:33.846Z,0
2019-05-30T21:17:14.414Z,0
2019-05-30T21:17:54.693Z,0
2019-05-30T21:29:31.214Z,0
2019-05-30T21:30:11.641Z,0
2019-05-30T21:30:52.063Z,0
2019-05-30T21:37:37.486Z,0
2019-05-30T21:38:16.693Z,0
2019-05-30T21:38:57.056Z,0
2019-05-30T21:39:37.915Z,0
2019-05-30T21:40:17.896Z,0
2019-05-30T21:40:58.235Z,0
2019-05-30T21:41:38.661Z,0
2019-05-30T21:42:19.086Z,0
2019-05-30T21:43:06.219Z,0
2019-05-30T21:43:40.367Z,0
2019-05-30T21:44:20.333Z,0
2019-05-30T21:45:00.804Z,0
2019-05-30T21:53:46.260Z,0
2019-05-30T21:54:26.656Z,0
2019-05-30T21:55:07.043Z,0
2019-05-30T21:55:48.010Z,0
2019-05-30T21:56:27.872Z,0
2019-05-30T21:57:08.279Z,0
2019-05-30T21:57:48.706Z,0
2019-05-30T21:58:29.132Z,0
2019-05-30T21:59:09.553Z,0
2019-05-30T21:59:50.756Z,0
2019-05-30T22:00:30.347Z,0
2019-05-30T22:01:10.768Z,0